Winsted, MN (55395)

12:59 PM CST on December 22, 2014 (GMT -0600)
Winsted Township | Change Station
CLOSE
Current Station
Personal Weather Station
Location: Winsted, MN
Elevation: 1027 ft
Nearby Weather Stations

Elev 1027 ft 44.96 °N, 94.07 °W | Updated 6 minutes ago

Rain
Rain
35.4 °F
Feels Like 28 °F
N
9.9
Wind Variable Wind from SE

Today
High -- | Low -- °F
--% Chance of Precip.
Yesterday
High -- | Low -- °F
Precip. -- in
7:51 AM 4:38 PM
New Moon, 1% visible
Pressure 29.55 in
Visibility 4.0 miles
Clouds Overcast 700 ft
Windchill 28 °F
Dew Point 32 °F
Humidity 89%
Rainfall 0.09 in
Snow Depth Not available.
UV 1 out of 12
Pollen .10 out of 12
Air Quality Not available.
Flu Activity Not available.
METAR KGYL 221854Z AUTO 12012KT 4SM -DZ OVC007 03/03 A2955 RMK AO2 T00280025

More Conditions Fewer Conditions

Pressure 29.55 in
Visibility 4.0 miles
Clouds Overcast 700 ft
Windchill 28 °F
Dew Point 32 °F
Humidity 89%
Rainfall 0.09 in
Snow Depth Not available.
UV 1 out of 12
Pollen .10 out of 12
Air Quality Not available.
Flu Activity Not available.
METAR KGYL 221854Z AUTO 12012KT 4SM -DZ OVC007 03/03 A2955 RMK AO2 T00280025

More Conditions Fewer Conditions

10-Day Weather Forecast

Almanac

Astronomy

Dec. 22, 2014 Rise Set
Actual Time
Civil Twilight
Nautical Twilight
Astronomical Twilight
Moon
Length of Visible Light
Length of Day
Tomorrow will be .
, % of the Moon is Illuminated

Today's Extremes

State Highs State Lows

Community

WunderPhotos

Upload Photos

1,779,687 photos uploaded!

WunderBlogs® & News

Nearby

Air Quality

  Air Quality AQ Index Pollutant
Not available.

Snow Depth

Station Depth Elevation

Earthquake Activity

City Distance Mag. Time & Date
Minimum magnitude displayed is 2.5.

Coastal Water Temperatures

Place Temperature

Nearby Weather Stations